sensor_id;sensor_type;location;lat;lon;timestamp;P1;durP1;ratioP1;P2;durP2;ratioP2
31676;SDS011;18385;51.572;6.578;2023-05-10T00:00:45;0.00;;;0.00;;
31676;SDS011;18385;51.572;6.578;2023-05-10T00:03:11;0.00;;;0.00;;
31676;SDS011;18385;51.572;6.578;2023-05-10T00:05:37;0.00;;;0.00;;
31676;SDS011;18385;51.572;6.578;2023-05-10T00:08:02;0.00;;;0.00;;
31676;SDS011;18385;51.572;6.578;2023-05-10T00:10:28;0.00;;;0.00;;
31676;SDS011;18385;51.572;6.578;2023-05-10T00:12:53;0.00;;;0.00;;
31676;SDS011;18385;51.572;6.578;2023-05-10T00:15:19;0.00;;;0.00;;
31676;SDS011;18385;51.572;6.578;2023-05-10T00:17:45;1.20;;;0.75;;
31676;SDS011;18385;51.572;6.578;2023-05-10T00:20:10;1.25;;;0.98;;
31676;SDS011;18385;51.572;6.578;2023-05-10T00:22:36;0.00;;;0.00;;
31676;SDS011;18385;51.572;6.578;2023-05-10T00:25:02;0.00;;;0.00;;
31676;SDS011;18385;51.572;6.578;2023-05-10T00:27:28;0.28;;;0.28;;
31676;SDS011;18385;51.572;6.578;2023-05-10T00:29:53;0.00;;;0.00;;
31676;SDS011;18385;51.572;6.578;2023-05-10T00:32:19;0.03;;;0.03;;
31676;SDS011;18385;51.572;6.578;2023-05-10T00:34:45;0.00;;;0.00;;
31676;SDS011;18385;51.572;6.578;2023-05-10T00:37:11;0.00;;;0.00;;
31676;SDS011;18385;51.572;6.578;2023-05-10T00:39:36;0.10;;;0.10;;
31676;SDS011;18385;51.572;6.578;2023-05-10T00:42:02;0.00;;;0.00;;
31676;SDS011;18385;51.572;6.578;2023-05-10T00:44:29;0.00;;;0.00;;
31676;SDS011;18385;51.572;6.578;2023-05-10T00:46:56;0.03;;;0.03;;
31676;SDS011;18385;51.572;6.578;2023-05-10T00:49:22;0.15;;;0.15;;
31676;SDS011;18385;51.572;6.578;2023-05-10T00:51:48;0.00;;;0.00;;
31676;SDS011;18385;51.572;6.578;2023-05-10T00:54:14;0.00;;;0.00;;
31676;SDS011;18385;51.572;6.578;2023-05-10T00:56:40;0.00;;;0.00;;
31676;SDS011;18385;51.572;6.578;2023-05-10T00:59:09;0.00;;;0.00;;
31676;SDS011;18385;51.572;6.578;2023-05-10T01:01:36;0.00;;;0.00;;
31676;SDS011;18385;51.572;6.578;2023-05-10T01:04:02;0.00;;;0.00;;
31676;SDS011;18385;51.572;6.578;2023-05-10T01:06:28;0.00;;;0.00;;
31676;SDS011;18385;51.572;6.578;2023-05-10T01:08:54;0.00;;;0.00;;
31676;SDS011;18385;51.572;6.578;2023-05-10T01:11:21;0.08;;;0.00;;
31676;SDS011;18385;51.572;6.578;2023-05-10T01:13:47;0.40;;;0.30;;
31676;SDS011;18385;51.572;6.578;2023-05-10T01:16:20;0.00;;;0.00;;
31676;SDS011;18385;51.572;6.578;2023-05-10T01:18:47;0.00;;;0.00;;
31676;SDS011;18385;51.572;6.578;2023-05-10T01:21:19;0.30;;;0.30;;
31676;SDS011;18385;51.572;6.578;2023-05-10T01:26:56;0.03;;;0.03;;
31676;SDS011;18385;51.572;6.578;2023-05-10T01:32:07;0.00;;;0.00;;
31676;SDS011;18385;51.572;6.578;2023-05-10T01:34:47;0.00;;;0.00;;
31676;SDS011;18385;51.572;6.578;2023-05-10T01:37:20;0.15;;;0.15;;
31676;SDS011;18385;51.572;6.578;2023-05-10T01:39:55;0.00;;;0.00;;
31676;SDS011;18385;51.572;6.578;2023-05-10T01:42:26;0.00;;;0.00;;
31676;SDS011;18385;51.572;6.578;2023-05-10T01:45:14;0.00;;;0.00;;
31676;SDS011;18385;51.572;6.578;2023-05-10T01:47:54;0.00;;;0.00;;
31676;SDS011;18385;51.572;6.578;2023-05-10T01:50:27;0.00;;;0.00;;
31676;SDS011;18385;51.572;6.578;2023-05-10T01:52:56;0.00;;;0.00;;
31676;SDS011;18385;51.572;6.578;2023-05-10T01:55:25;0.00;;;0.00;;
31676;SDS011;18385;51.572;6.578;2023-05-10T01:58:07;0.00;;;0.00;;
31676;SDS011;18385;51.572;6.578;2023-05-10T02:00:35;0.00;;;0.00;;
31676;SDS011;18385;51.572;6.578;2023-05-10T02:05:31;0.00;;;0.00;;
31676;SDS011;18385;51.572;6.578;2023-05-10T02:07:59;0.00;;;0.00;;
31676;SDS011;18385;51.572;6.578;2023-05-10T02:10:27;0.00;;;0.00;;
31676;SDS011;18385;51.572;6.578;2023-05-10T02:12:54;0.00;;;0.00;;
31676;SDS011;18385;51.572;6.578;2023-05-10T02:17:49;0.00;;;0.00;;
31676;SDS011;18385;51.572;6.578;2023-05-10T02:20:16;0.00;;;0.00;;
31676;SDS011;18385;51.572;6.578;2023-05-10T02:22:44;0.00;;;0.00;;
31676;SDS011;18385;51.572;6.578;2023-05-10T02:25:12;0.00;;;0.00;;
31676;SDS011;18385;51.572;6.578;2023-05-10T02:27:40;0.00;;;0.00;;
31676;SDS011;18385;51.572;6.578;2023-05-10T02:30:07;0.00;;;0.00;;
31676;SDS011;18385;51.572;6.578;2023-05-10T02:32:35;0.00;;;0.00;;
31676;SDS011;18385;51.572;6.578;2023-05-10T02:35:02;0.00;;;0.00;;
31676;SDS011;18385;51.572;6.578;2023-05-10T02:37:28;0.00;;;0.00;;
31676;SDS011;18385;51.572;6.578;2023-05-10T02:39:55;0.00;;;0.00;;
31676;SDS011;18385;51.572;6.578;2023-05-10T02:42:23;0.00;;;0.00;;
31676;SDS011;18385;51.572;6.578;2023-05-10T02:44:53;0.00;;;0.00;;
31676;SDS011;18385;51.572;6.578;2023-05-10T02:47:21;0.00;;;0.00;;
31676;SDS011;18385;51.572;6.578;2023-05-10T02:49:47;0.00;;;0.00;;
31676;SDS011;18385;51.572;6.578;2023-05-10T02:52:14;0.00;;;0.00;;
31676;SDS011;18385;51.572;6.578;2023-05-10T02:54:49;0.00;;;0.00;;
31676;SDS011;18385;51.572;6.578;2023-05-10T02:57:17;0.00;;;0.00;;
31676;SDS011;18385;51.572;6.578;2023-05-10T02:59:51;0.00;;;0.00;;
31676;SDS011;18385;51.572;6.578;2023-05-10T03:02:17;0.00;;;0.00;;
31676;SDS011;18385;51.572;6.578;2023-05-10T03:04:42;0.00;;;0.00;;
31676;SDS011;18385;51.572;6.578;2023-05-10T03:07:08;0.00;;;0.00;;
31676;SDS011;18385;51.572;6.578;2023-05-10T03:09:34;0.00;;;0.00;;
31676;SDS011;18385;51.572;6.578;2023-05-10T03:12:06;0.00;;;0.00;;
31676;SDS011;18385;51.572;6.578;2023-05-10T03:17:25;0.00;;;0.00;;
31676;SDS011;18385;51.572;6.578;2023-05-10T03:20:04;0.00;;;0.00;;
31676;SDS011;18385;51.572;6.578;2023-05-10T03:22:47;0.00;;;0.00;;
31676;SDS011;18385;51.572;6.578;2023-05-10T03:25:17;0.00;;;0.00;;
31676;SDS011;18385;51.572;6.578;2023-05-10T03:27:45;0.00;;;0.00;;
31676;SDS011;18385;51.572;6.578;2023-05-10T03:30:12;0.00;;;0.00;;
31676;SDS011;18385;51.572;6.578;2023-05-10T03:32:38;0.00;;;0.00;;
31676;SDS011;18385;51.572;6.578;2023-05-10T03:35:08;0.00;;;0.00;;
31676;SDS011;18385;51.572;6.578;2023-05-10T03:37:35;0.00;;;0.00;;
31676;SDS011;18385;51.572;6.578;2023-05-10T03:40:01;0.10;;;0.10;;
31676;SDS011;18385;51.572;6.578;2023-05-10T03:42:29;0.00;;;0.00;;
31676;SDS011;18385;51.572;6.578;2023-05-10T03:44:55;0.00;;;0.00;;
31676;SDS011;18385;51.572;6.578;2023-05-10T03:47:21;0.00;;;0.00;;
31676;SDS011;18385;51.572;6.578;2023-05-10T03:49:47;0.10;;;0.10;;
31676;SDS011;18385;51.572;6.578;2023-05-10T03:52:12;0.00;;;0.00;;
31676;SDS011;18385;51.572;6.578;2023-05-10T03:54:38;0.00;;;0.00;;
31676;SDS011;18385;51.572;6.578;2023-05-10T03:57:04;0.38;;;0.15;;
31676;SDS011;18385;51.572;6.578;2023-05-10T03:59:30;0.00;;;0.00;;
31676;SDS011;18385;51.572;6.578;2023-05-10T04:01:56;0.00;;;0.00;;
31676;SDS011;18385;51.572;6.578;2023-05-10T04:04:22;0.57;;;0.28;;
31676;SDS011;18385;51.572;6.578;2023-05-10T04:06:49;0.00;;;0.00;;
31676;SDS011;18385;51.572;6.578;2023-05-10T04:09:15;0.20;;;0.20;;
31676;SDS011;18385;51.572;6.578;2023-05-10T04:11:41;0.00;;;0.00;;
31676;SDS011;18385;51.572;6.578;2023-05-10T04:14:07;0.00;;;0.00;;
31676;SDS011;18385;51.572;6.578;2023-05-10T04:16:33;0.00;;;0.00;;
31676;SDS011;18385;51.572;6.578;2023-05-10T04:18:59;0.00;;;0.00;;
31676;SDS011;18385;51.572;6.578;2023-05-10T04:21:25;0.00;;;0.00;;
31676;SDS011;18385;51.572;6.578;2023-05-10T04:23:51;0.00;;;0.00;;
31676;SDS011;18385;51.572;6.578;2023-05-10T04:26:16;0.10;;;0.10;;
31676;SDS011;18385;51.572;6.578;2023-05-10T04:28:42;0.00;;;0.00;;
31676;SDS011;18385;51.572;6.578;2023-05-10T04:31:08;0.00;;;0.00;;
31676;SDS011;18385;51.572;6.578;2023-05-10T04:33:35;0.20;;;0.20;;
31676;SDS011;18385;51.572;6.578;2023-05-10T04:36:02;0.00;;;0.00;;
31676;SDS011;18385;51.572;6.578;2023-05-10T04:38:28;0.00;;;0.00;;
31676;SDS011;18385;51.572;6.578;2023-05-10T04:40:54;0.10;;;0.10;;
31676;SDS011;18385;51.572;6.578;2023-05-10T04:43:28;1.67;;;1.02;;
31676;SDS011;18385;51.572;6.578;2023-05-10T04:45:55;0.00;;;0.00;;
31676;SDS011;18385;51.572;6.578;2023-05-10T04:48:22;0.00;;;0.00;;
31676;SDS011;18385;51.572;6.578;2023-05-10T04:50:47;0.00;;;0.00;;
31676;SDS011;18385;51.572;6.578;2023-05-10T04:53:13;0.10;;;0.10;;
31676;SDS011;18385;51.572;6.578;2023-05-10T04:55:38;0.13;;;0.13;;
31676;SDS011;18385;51.572;6.578;2023-05-10T04:58:04;0.00;;;0.00;;
31676;SDS011;18385;51.572;6.578;2023-05-10T05:00:29;0.00;;;0.00;;
31676;SDS011;18385;51.572;6.578;2023-05-10T05:02:55;0.00;;;0.00;;
31676;SDS011;18385;51.572;6.578;2023-05-10T05:05:21;0.00;;;0.00;;
31676;SDS011;18385;51.572;6.578;2023-05-10T05:07:46;0.00;;;0.00;;
31676;SDS011;18385;51.572;6.578;2023-05-10T05:10:12;0.10;;;0.10;;
31676;SDS011;18385;51.572;6.578;2023-05-10T05:12:39;0.20;;;0.20;;
31676;SDS011;18385;51.572;6.578;2023-05-10T05:15:04;0.00;;;0.00;;
31676;SDS011;18385;51.572;6.578;2023-05-10T05:17:31;0.10;;;0.10;;
31676;SDS011;18385;51.572;6.578;2023-05-10T05:19:56;0.00;;;0.00;;
31676;SDS011;18385;51.572;6.578;2023-05-10T05:22:22;0.10;;;0.10;;
31676;SDS011;18385;51.572;6.578;2023-05-10T05:24:52;0.00;;;0.00;;
31676;SDS011;18385;51.572;6.578;2023-05-10T05:27:19;0.00;;;0.00;;
31676;SDS011;18385;51.572;6.578;2023-05-10T05:29:58;0.10;;;0.10;;
31676;SDS011;18385;51.572;6.578;2023-05-10T05:32:24;0.13;;;0.13;;
31676;SDS011;18385;51.572;6.578;2023-05-10T05:34:50;0.95;;;0.40;;
31676;SDS011;18385;51.572;6.578;2023-05-10T05:37:19;0.30;;;0.30;;
31676;SDS011;18385;51.572;6.578;2023-05-10T05:39:46;0.00;;;0.00;;
31676;SDS011;18385;51.572;6.578;2023-05-10T05:42:12;0.00;;;0.00;;
31676;SDS011;18385;51.572;6.578;2023-05-10T05:44:38;0.10;;;0.10;;
31676;SDS011;18385;51.572;6.578;2023-05-10T05:47:04;0.00;;;0.00;;
31676;SDS011;18385;51.572;6.578;2023-05-10T05:49:31;0.03;;;0.03;;
31676;SDS011;18385;51.572;6.578;2023-05-10T05:52:00;0.00;;;0.00;;
31676;SDS011;18385;51.572;6.578;2023-05-10T05:54:27;0.00;;;0.00;;
31676;SDS011;18385;51.572;6.578;2023-05-10T05:56:54;0.43;;;0.40;;
31676;SDS011;18385;51.572;6.578;2023-05-10T05:59:20;1.27;;;0.65;;
31676;SDS011;18385;51.572;6.578;2023-05-10T06:01:46;0.10;;;0.10;;
31676;SDS011;18385;51.572;6.578;2023-05-10T06:04:12;0.00;;;0.00;;
31676;SDS011;18385;51.572;6.578;2023-05-10T06:06:38;0.93;;;0.13;;
31676;SDS011;18385;51.572;6.578;2023-05-10T06:09:03;0.25;;;0.25;;
31676;SDS011;18385;51.572;6.578;2023-05-10T06:11:29;0.20;;;0.20;;
31676;SDS011;18385;51.572;6.578;2023-05-10T06:13:57;0.10;;;0.10;;
31676;SDS011;18385;51.572;6.578;2023-05-10T06:16:23;0.17;;;0.15;;
31676;SDS011;18385;51.572;6.578;2023-05-10T06:18:48;0.03;;;0.03;;
31676;SDS011;18385;51.572;6.578;2023-05-10T06:21:14;0.00;;;0.00;;
31676;SDS011;18385;51.572;6.578;2023-05-10T06:23:41;0.30;;;0.20;;
31676;SDS011;18385;51.572;6.578;2023-05-10T06:26:07;0.75;;;0.25;;
31676;SDS011;18385;51.572;6.578;2023-05-10T06:28:32;0.22;;;0.22;;
31676;SDS011;18385;51.572;6.578;2023-05-10T06:30:59;0.43;;;0.43;;
31676;SDS011;18385;51.572;6.578;2023-05-10T06:33:25;0.55;;;0.55;;
31676;SDS011;18385;51.572;6.578;2023-05-10T06:35:50;0.00;;;0.00;;
31676;SDS011;18385;51.572;6.578;2023-05-10T06:38:16;0.00;;;0.00;;
31676;SDS011;18385;51.572;6.578;2023-05-10T06:40:42;0.10;;;0.10;;
31676;SDS011;18385;51.572;6.578;2023-05-10T06:43:08;0.28;;;0.28;;
31676;SDS011;18385;51.572;6.578;2023-05-10T06:45:35;0.00;;;0.00;;
31676;SDS011;18385;51.572;6.578;2023-05-10T06:48:01;0.10;;;0.10;;
31676;SDS011;18385;51.572;6.578;2023-05-10T06:50:26;0.25;;;0.25;;
31676;SDS011;18385;51.572;6.578;2023-05-10T06:52:52;0.17;;;0.17;;
31676;SDS011;18385;51.572;6.578;2023-05-10T06:55:18;0.00;;;0.00;;
31676;SDS011;18385;51.572;6.578;2023-05-10T06:57:43;0.03;;;0.03;;
31676;SDS011;18385;51.572;6.578;2023-05-10T07:00:10;0.00;;;0.00;;
31676;SDS011;18385;51.572;6.578;2023-05-10T07:02:35;0.00;;;0.00;;
31676;SDS011;18385;51.572;6.578;2023-05-10T07:05:01;0.35;;;0.35;;
31676;SDS011;18385;51.572;6.578;2023-05-10T07:07:27;0.10;;;0.10;;
31676;SDS011;18385;51.572;6.578;2023-05-10T07:09:53;0.00;;;0.00;;
31676;SDS011;18385;51.572;6.578;2023-05-10T07:12:19;0.00;;;0.00;;
31676;SDS011;18385;51.572;6.578;2023-05-10T07:14:45;0.20;;;0.20;;
31676;SDS011;18385;51.572;6.578;2023-05-10T07:17:11;0.57;;;0.30;;
31676;SDS011;18385;51.572;6.578;2023-05-10T07:19:37;0.20;;;0.15;;
31676;SDS011;18385;51.572;6.578;2023-05-10T07:22:02;0.00;;;0.00;;
31676;SDS011;18385;51.572;6.578;2023-05-10T07:24:28;0.90;;;0.43;;
31676;SDS011;18385;51.572;6.578;2023-05-10T07:26:54;0.45;;;0.45;;
31676;SDS011;18385;51.572;6.578;2023-05-10T07:29:20;1.13;;;0.60;;
31676;SDS011;18385;51.572;6.578;2023-05-10T07:31:46;0.10;;;0.10;;
31676;SDS011;18385;51.572;6.578;2023-05-10T07:34:11;0.05;;;0.05;;
31676;SDS011;18385;51.572;6.578;2023-05-10T07:36:37;0.00;;;0.00;;
31676;SDS011;18385;51.572;6.578;2023-05-10T07:39:03;0.10;;;0.10;;
31676;SDS011;18385;51.572;6.578;2023-05-10T07:41:28;0.28;;;0.28;;
31676;SDS011;18385;51.572;6.578;2023-05-10T07:43:54;0.32;;;0.32;;
31676;SDS011;18385;51.572;6.578;2023-05-10T07:46:20;0.00;;;0.00;;
31676;SDS011;18385;51.572;6.578;2023-05-10T07:48:45;0.00;;;0.00;;
31676;SDS011;18385;51.572;6.578;2023-05-10T07:51:11;0.20;;;0.20;;
31676;SDS011;18385;51.572;6.578;2023-05-10T07:53:37;0.63;;;0.32;;
31676;SDS011;18385;51.572;6.578;2023-05-10T07:56:24;0.73;;;0.65;;
31676;SDS011;18385;51.572;6.578;2023-05-10T07:58:52;0.03;;;0.03;;
31676;SDS011;18385;51.572;6.578;2023-05-10T08:01:18;0.00;;;0.00;;
31676;SDS011;18385;51.572;6.578;2023-05-10T08:03:44;0.63;;;0.38;;
31676;SDS011;18385;51.572;6.578;2023-05-10T08:06:10;0.88;;;0.57;;
31676;SDS011;18385;51.572;6.578;2023-05-10T08:08:36;0.05;;;0.05;;
31676;SDS011;18385;51.572;6.578;2023-05-10T08:11:01;0.73;;;0.47;;
31676;SDS011;18385;51.572;6.578;2023-05-10T08:13:28;0.03;;;0.03;;
31676;SDS011;18385;51.572;6.578;2023-05-10T08:15:54;0.45;;;0.43;;
31676;SDS011;18385;51.572;6.578;2023-05-10T08:18:20;0.80;;;0.60;;
31676;SDS011;18385;51.572;6.578;2023-05-10T08:20:46;0.00;;;0.00;;
31676;SDS011;18385;51.572;6.578;2023-05-10T08:23:14;0.63;;;0.63;;
31676;SDS011;18385;51.572;6.578;2023-05-10T08:25:40;0.75;;;0.75;;
31676;SDS011;18385;51.572;6.578;2023-05-10T08:28:06;0.70;;;0.70;;
31676;SDS011;18385;51.572;6.578;2023-05-10T08:30:31;0.38;;;0.38;;
31676;SDS011;18385;51.572;6.578;2023-05-10T08:32:57;0.20;;;0.20;;
31676;SDS011;18385;51.572;6.578;2023-05-10T08:35:23;0.50;;;0.10;;
31676;SDS011;18385;51.572;6.578;2023-05-10T08:37:49;0.30;;;0.30;;
31676;SDS011;18385;51.572;6.578;2023-05-10T08:40:15;0.00;;;0.00;;
31676;SDS011;18385;51.572;6.578;2023-05-10T08:42:51;1.55;;;0.40;;
31676;SDS011;18385;51.572;6.578;2023-05-10T08:45:22;0.13;;;0.13;;
31676;SDS011;18385;51.572;6.578;2023-05-10T08:47:48;0.00;;;0.00;;
31676;SDS011;18385;51.572;6.578;2023-05-10T08:50:15;0.10;;;0.10;;
31676;SDS011;18385;51.572;6.578;2023-05-10T08:52:45;7.47;;;3.00;;
31676;SDS011;18385;51.572;6.578;2023-05-10T08:55:12;31.02;;;14.13;;
31676;SDS011;18385;51.572;6.578;2023-05-10T08:57:38;28.13;;;14.57;;
31676;SDS011;18385;51.572;6.578;2023-05-10T09:00:04;31.73;;;13.98;;
31676;SDS011;18385;51.572;6.578;2023-05-10T09:02:31;27.75;;;14.13;;
31676;SDS011;18385;51.572;6.578;2023-05-10T09:04:56;29.10;;;13.52;;
31676;SDS011;18385;51.572;6.578;2023-05-10T09:07:22;25.98;;;13.35;;
31676;SDS011;18385;51.572;6.578;2023-05-10T09:09:48;31.60;;;14.52;;
31676;SDS011;18385;51.572;6.578;2023-05-10T09:12:14;27.25;;;13.57;;
31676;SDS011;18385;51.572;6.578;2023-05-10T09:14:41;29.05;;;13.63;;
31676;SDS011;18385;51.572;6.578;2023-05-10T09:17:09;24.55;;;12.43;;
31676;SDS011;18385;51.572;6.578;2023-05-10T09:19:35;26.80;;;12.00;;
31676;SDS011;18385;51.572;6.578;2023-05-10T09:22:00;29.65;;;14.00;;
31676;SDS011;18385;51.572;6.578;2023-05-10T09:24:29;28.02;;;13.70;;
31676;SDS011;18385;51.572;6.578;2023-05-10T09:26:56;25.33;;;12.00;;
31676;SDS011;18385;51.572;6.578;2023-05-10T09:29:22;28.83;;;14.10;;
31676;SDS011;18385;51.572;6.578;2023-05-10T09:31:49;25.10;;;12.98;;
31676;SDS011;18385;51.572;6.578;2023-05-10T09:34:20;24.73;;;11.90;;
31676;SDS011;18385;51.572;6.578;2023-05-10T09:36:54;31.63;;;13.55;;
31676;SDS011;18385;51.572;6.578;2023-05-10T09:39:34;25.00;;;12.27;;
31676;SDS011;18385;51.572;6.578;2023-05-10T09:42:02;26.25;;;12.85;;
31676;SDS011;18385;51.572;6.578;2023-05-10T09:44:33;25.15;;;12.80;;
31676;SDS011;18385;51.572;6.578;2023-05-10T09:47:00;25.45;;;12.88;;
31676;SDS011;18385;51.572;6.578;2023-05-10T09:49:26;23.85;;;12.48;;
31676;SDS011;18385;51.572;6.578;2023-05-10T09:52:05;23.52;;;11.13;;
31676;SDS011;18385;51.572;6.578;2023-05-10T09:54:32;22.77;;;12.05;;
31676;SDS011;18385;51.572;6.578;2023-05-10T09:56:58;24.30;;;12.68;;
31676;SDS011;18385;51.572;6.578;2023-05-10T09:59:25;29.52;;;12.02;;
31676;SDS011;18385;51.572;6.578;2023-05-10T10:02:01;20.88;;;12.05;;
31676;SDS011;18385;51.572;6.578;2023-05-10T10:04:27;27.88;;;13.25;;
31676;SDS011;18385;51.572;6.578;2023-05-10T10:07:00;22.00;;;12.35;;
31676;SDS011;18385;51.572;6.578;2023-05-10T10:09:27;28.25;;;12.18;;
31676;SDS011;18385;51.572;6.578;2023-05-10T10:11:53;29.15;;;12.00;;
31676;SDS011;18385;51.572;6.578;2023-05-10T10:14:19;24.75;;;11.80;;
31676;SDS011;18385;51.572;6.578;2023-05-10T10:16:46;24.55;;;13.45;;
31676;SDS011;18385;51.572;6.578;2023-05-10T10:19:13;24.52;;;12.00;;
31676;SDS011;18385;51.572;6.578;2023-05-10T10:21:39;26.25;;;13.38;;
31676;SDS011;18385;51.572;6.578;2023-05-10T10:24:05;28.25;;;13.57;;
31676;SDS011;18385;51.572;6.578;2023-05-10T10:26:33;30.63;;;13.38;;
31676;SDS011;18385;51.572;6.578;2023-05-10T10:29:19;31.27;;;12.98;;
31676;SDS011;18385;51.572;6.578;2023-05-10T10:31:57;34.80;;;14.18;;
31676;SDS011;18385;51.572;6.578;2023-05-10T10:34:32;26.55;;;13.23;;
31676;SDS011;18385;51.572;6.578;2023-05-10T10:37:03;25.45;;;12.60;;
31676;SDS011;18385;51.572;6.578;2023-05-10T10:39:30;29.65;;;14.40;;
31676;SDS011;18385;51.572;6.578;2023-05-10T10:41:56;28.02;;;13.48;;
31676;SDS011;18385;51.572;6.578;2023-05-10T10:46:59;27.27;;;12.23;;
31676;SDS011;18385;51.572;6.578;2023-05-10T10:49:26;24.45;;;13.70;;
31676;SDS011;18385;51.572;6.578;2023-05-10T10:52:12;26.95;;;14.13;;
31676;SDS011;18385;51.572;6.578;2023-05-10T10:54:38;31.02;;;15.73;;
31676;SDS011;18385;51.572;6.578;2023-05-10T10:57:14;29.92;;;15.07;;
31676;SDS011;18385;51.572;6.578;2023-05-10T10:59:43;25.10;;;12.50;;
31676;SDS011;18385;51.572;6.578;2023-05-10T11:02:32;22.65;;;12.60;;
31676;SDS011;18385;51.572;6.578;2023-05-10T11:04:59;24.75;;;14.15;;
31676;SDS011;18385;51.572;6.578;2023-05-10T11:07:25;28.25;;;14.25;;
31676;SDS011;18385;51.572;6.578;2023-05-10T11:09:51;28.55;;;13.95;;
31676;SDS011;18385;51.572;6.578;2023-05-10T11:12:17;24.35;;;13.43;;
31676;SDS011;18385;51.572;6.578;2023-05-10T11:14:42;28.00;;;13.15;;
31676;SDS011;18385;51.572;6.578;2023-05-10T11:17:26;21.95;;;12.57;;
31676;SDS011;18385;51.572;6.578;2023-05-10T11:20:02;18.83;;;10.95;;
31676;SDS011;18385;51.572;6.578;2023-05-10T11:22:44;19.67;;;10.32;;
31676;SDS011;18385;51.572;6.578;2023-05-10T11:25:16;16.10;;;10.23;;
31676;SDS011;18385;51.572;6.578;2023-05-10T11:27:42;18.50;;;10.43;;
31676;SDS011;18385;51.572;6.578;2023-05-10T11:30:09;15.05;;;9.18;;
31676;SDS011;18385;51.572;6.578;2023-05-10T11:32:38;17.90;;;10.15;;
31676;SDS011;18385;51.572;6.578;2023-05-10T11:35:08;16.45;;;9.60;;
31676;SDS011;18385;51.572;6.578;2023-05-10T11:37:35;15.60;;;8.57;;
31676;SDS011;18385;51.572;6.578;2023-05-10T11:40:01;13.15;;;8.32;;
31676;SDS011;18385;51.572;6.578;2023-05-10T11:42:28;14.38;;;8.75;;
31676;SDS011;18385;51.572;6.578;2023-05-10T11:44:54;13.18;;;7.97;;
31676;SDS011;18385;51.572;6.578;2023-05-10T11:47:19;13.50;;;7.85;;
31676;SDS011;18385;51.572;6.578;2023-05-10T11:49:46;13.55;;;8.27;;
31676;SDS011;18385;51.572;6.578;2023-05-10T11:52:12;13.15;;;8.02;;
31676;SDS011;18385;51.572;6.578;2023-05-10T11:54:46;13.32;;;7.53;;
31676;SDS011;18385;51.572;6.578;2023-05-10T11:57:17;14.60;;;7.53;;
31676;SDS011;18385;51.572;6.578;2023-05-10T11:59:44;15.13;;;7.40;;
31676;SDS011;18385;51.572;6.578;2023-05-10T12:02:11;12.82;;;7.32;;
31676;SDS011;18385;51.572;6.578;2023-05-10T12:04:37;11.50;;;6.93;;
31676;SDS011;18385;51.572;6.578;2023-05-10T12:07:03;12.23;;;6.95;;
31676;SDS011;18385;51.572;6.578;2023-05-10T12:09:29;12.20;;;6.93;;
31676;SDS011;18385;51.572;6.578;2023-05-10T12:11:55;9.85;;;6.55;;
31676;SDS011;18385;51.572;6.578;2023-05-10T12:14:23;10.02;;;6.68;;
31676;SDS011;18385;51.572;6.578;2023-05-10T12:16:49;11.30;;;6.35;;
31676;SDS011;18385;51.572;6.578;2023-05-10T12:19:18;10.93;;;6.80;;
31676;SDS011;18385;51.572;6.578;2023-05-10T12:21:47;11.65;;;6.40;;
31676;SDS011;18385;51.572;6.578;2023-05-10T12:24:13;8.77;;;5.60;;
31676;SDS011;18385;51.572;6.578;2023-05-10T12:26:42;10.48;;;6.30;;
31676;SDS011;18385;51.572;6.578;2023-05-10T12:29:16;10.48;;;6.43;;
31676;SDS011;18385;51.572;6.578;2023-05-10T12:31:53;15.02;;;7.25;;
31676;SDS011;18385;51.572;6.578;2023-05-10T12:36:56;8.65;;;6.05;;
31676;SDS011;18385;51.572;6.578;2023-05-10T12:39:21;12.70;;;6.68;;
31676;SDS011;18385;51.572;6.578;2023-05-10T12:41:48;9.75;;;6.22;;
31676;SDS011;18385;51.572;6.578;2023-05-10T12:44:13;13.13;;;6.80;;
31676;SDS011;18385;51.572;6.578;2023-05-10T12:46:39;10.60;;;6.82;;
31676;SDS011;18385;51.572;6.578;2023-05-10T12:49:05;11.45;;;6.30;;
31676;SDS011;18385;51.572;6.578;2023-05-10T12:51:31;9.43;;;5.93;;
31676;SDS011;18385;51.572;6.578;2023-05-10T12:53:56;9.95;;;5.63;;
31676;SDS011;18385;51.572;6.578;2023-05-10T12:56:22;10.35;;;5.63;;
31676;SDS011;18385;51.572;6.578;2023-05-10T12:58:48;8.70;;;5.60;;
31676;SDS011;18385;51.572;6.578;2023-05-10T13:01:14;7.57;;;4.38;;
31676;SDS011;18385;51.572;6.578;2023-05-10T13:03:39;7.82;;;4.57;;
31676;SDS011;18385;51.572;6.578;2023-05-10T13:06:05;6.65;;;4.25;;
31676;SDS011;18385;51.572;6.578;2023-05-10T13:08:31;10.05;;;5.65;;
31676;SDS011;18385;51.572;6.578;2023-05-10T13:11:01;8.70;;;5.10;;
31676;SDS011;18385;51.572;6.578;2023-05-10T13:13:27;7.47;;;4.28;;
31676;SDS011;18385;51.572;6.578;2023-05-10T13:15:53;7.68;;;4.90;;
31676;SDS011;18385;51.572;6.578;2023-05-10T13:18:19;6.43;;;4.00;;
31676;SDS011;18385;51.572;6.578;2023-05-10T13:20:45;8.38;;;4.65;;
31676;SDS011;18385;51.572;6.578;2023-05-10T13:23:11;9.15;;;4.00;;
31676;SDS011;18385;51.572;6.578;2023-05-10T13:25:36;7.78;;;4.20;;
31676;SDS011;18385;51.572;6.578;2023-05-10T13:28:02;6.82;;;4.03;;
31676;SDS011;18385;51.572;6.578;2023-05-10T13:30:28;7.38;;;3.88;;
31676;SDS011;18385;51.572;6.578;2023-05-10T13:32:54;5.80;;;3.88;;
31676;SDS011;18385;51.572;6.578;2023-05-10T13:35:19;6.28;;;3.58;;
31676;SDS011;18385;51.572;6.578;2023-05-10T13:37:45;7.32;;;4.63;;
31676;SDS011;18385;51.572;6.578;2023-05-10T13:40:11;7.03;;;4.25;;
31676;SDS011;18385;51.572;6.578;2023-05-10T13:42:37;7.80;;;4.32;;
31676;SDS011;18385;51.572;6.578;2023-05-10T13:45:03;7.00;;;3.97;;
31676;SDS011;18385;51.572;6.578;2023-05-10T13:47:29;7.30;;;4.05;;
31676;SDS011;18385;51.572;6.578;2023-05-10T13:49:55;7.07;;;4.15;;
31676;SDS011;18385;51.572;6.578;2023-05-10T13:52:22;6.32;;;4.55;;
31676;SDS011;18385;51.572;6.578;2023-05-10T13:54:48;8.00;;;4.70;;
31676;SDS011;18385;51.572;6.578;2023-05-10T13:57:13;8.88;;;4.65;;
31676;SDS011;18385;51.572;6.578;2023-05-10T13:59:41;9.50;;;5.47;;
31676;SDS011;18385;51.572;6.578;2023-05-10T14:02:07;7.70;;;5.47;;
31676;SDS011;18385;51.572;6.578;2023-05-10T14:04:33;10.50;;;5.80;;
31676;SDS011;18385;51.572;6.578;2023-05-10T14:07:00;8.55;;;5.60;;
31676;SDS011;18385;51.572;6.578;2023-05-10T14:09:26;9.90;;;5.55;;
31676;SDS011;18385;51.572;6.578;2023-05-10T14:11:51;8.57;;;5.65;;
31676;SDS011;18385;51.572;6.578;2023-05-10T14:14:17;7.70;;;6.10;;
31676;SDS011;18385;51.572;6.578;2023-05-10T14:16:43;10.85;;;6.38;;
31676;SDS011;18385;51.572;6.578;2023-05-10T14:19:09;8.77;;;6.10;;
31676;SDS011;18385;51.572;6.578;2023-05-10T14:21:36;8.38;;;6.28;;
31676;SDS011;18385;51.572;6.578;2023-05-10T14:24:02;9.05;;;6.47;;
31676;SDS011;18385;51.572;6.578;2023-05-10T14:26:28;9.98;;;6.93;;
31676;SDS011;18385;51.572;6.578;2023-05-10T14:28:53;11.63;;;6.63;;
31676;SDS011;18385;51.572;6.578;2023-05-10T14:31:19;14.43;;;7.38;;
31676;SDS011;18385;51.572;6.578;2023-05-10T14:33:55;9.00;;;7.00;;
31676;SDS011;18385;51.572;6.578;2023-05-10T14:36:25;13.25;;;7.65;;
31676;SDS011;18385;51.572;6.578;2023-05-10T14:38:50;11.07;;;8.20;;
31676;SDS011;18385;51.572;6.578;2023-05-10T14:41:17;14.10;;;7.40;;
31676;SDS011;18385;51.572;6.578;2023-05-10T14:43:43;10.93;;;6.25;;
31676;SDS011;18385;51.572;6.578;2023-05-10T14:46:08;3.58;;;2.22;;
31676;SDS011;18385;51.572;6.578;2023-05-10T14:48:34;3.22;;;1.52;;
31676;SDS011;18385;51.572;6.578;2023-05-10T14:51:00;1.67;;;0.60;;
31676;SDS011;18385;51.572;6.578;2023-05-10T14:53:26;1.48;;;0.40;;
31676;SDS011;18385;51.572;6.578;2023-05-10T14:55:52;1.70;;;0.50;;
31676;SDS011;18385;51.572;6.578;2023-05-10T14:58:17;1.40;;;0.70;;
31676;SDS011;18385;51.572;6.578;2023-05-10T15:00:43;1.30;;;0.80;;